sensor_id;sensor_type;location;lat;lon;timestamp;P1;durP1;ratioP1;P2;durP2;ratioP2
13244;SDS011;6689;53.400;12.486;2023-03-11T00:00:22;8.75;;;6.47;;
13244;SDS011;6689;53.400;12.486;2023-03-11T00:02:52;11.40;;;7.95;;
13244;SDS011;6689;53.400;12.486;2023-03-11T00:05:21;11.27;;;8.07;;
13244;SDS011;6689;53.400;12.486;2023-03-11T00:07:50;11.55;;;7.60;;
13244;SDS011;6689;53.400;12.486;2023-03-11T00:10:19;12.20;;;8.15;;
13244;SDS011;6689;53.400;12.486;2023-03-11T00:12:48;12.25;;;8.85;;
13244;SDS011;6689;53.400;12.486;2023-03-11T00:15:17;11.88;;;8.60;;
13244;SDS011;6689;53.400;12.486;2023-03-11T00:17:46;12.30;;;9.10;;
13244;SDS011;6689;53.400;12.486;2023-03-11T00:20:14;11.18;;;9.00;;
13244;SDS011;6689;53.400;12.486;2023-03-11T00:22:43;13.40;;;8.95;;
13244;SDS011;6689;53.400;12.486;2023-03-11T00:25:10;13.55;;;9.07;;
13244;SDS011;6689;53.400;12.486;2023-03-11T00:27:37;14.73;;;10.77;;
13244;SDS011;6689;53.400;12.486;2023-03-11T00:30:05;13.02;;;8.38;;
13244;SDS011;6689;53.400;12.486;2023-03-11T00:32:35;13.10;;;8.45;;
13244;SDS011;6689;53.400;12.486;2023-03-11T00:35:03;13.73;;;9.90;;
13244;SDS011;6689;53.400;12.486;2023-03-11T00:37:31;11.95;;;8.57;;
13244;SDS011;6689;53.400;12.486;2023-03-11T00:39:58;12.85;;;8.48;;
13244;SDS011;6689;53.400;12.486;2023-03-11T00:42:26;10.65;;;6.97;;
13244;SDS011;6689;53.400;12.486;2023-03-11T00:44:53;13.00;;;8.35;;
13244;SDS011;6689;53.400;12.486;2023-03-11T00:47:21;15.73;;;9.40;;
13244;SDS011;6689;53.400;12.486;2023-03-11T00:49:49;11.90;;;8.85;;
13244;SDS011;6689;53.400;12.486;2023-03-11T00:52:17;13.73;;;8.50;;
13244;SDS011;6689;53.400;12.486;2023-03-11T00:54:44;14.43;;;8.15;;
13244;SDS011;6689;53.400;12.486;2023-03-11T00:57:11;12.55;;;8.52;;
13244;SDS011;6689;53.400;12.486;2023-03-11T00:59:39;9.18;;;6.97;;
13244;SDS011;6689;53.400;12.486;2023-03-11T01:02:06;11.73;;;7.68;;
13244;SDS011;6689;53.400;12.486;2023-03-11T01:04:33;14.75;;;8.65;;
13244;SDS011;6689;53.400;12.486;2023-03-11T01:07:02;11.02;;;8.18;;
13244;SDS011;6689;53.400;12.486;2023-03-11T01:09:29;12.25;;;8.10;;
13244;SDS011;6689;53.400;12.486;2023-03-11T01:11:57;17.25;;;10.02;;
13244;SDS011;6689;53.400;12.486;2023-03-11T01:14:24;14.45;;;8.93;;
13244;SDS011;6689;53.400;12.486;2023-03-11T01:16:51;12.90;;;8.70;;
13244;SDS011;6689;53.400;12.486;2023-03-11T01:19:19;14.82;;;9.65;;
13244;SDS011;6689;53.400;12.486;2023-03-11T01:21:47;11.98;;;8.13;;
13244;SDS011;6689;53.400;12.486;2023-03-11T01:24:16;13.48;;;9.38;;
13244;SDS011;6689;53.400;12.486;2023-03-11T01:26:43;11.10;;;8.40;;
13244;SDS011;6689;53.400;12.486;2023-03-11T01:29:11;11.93;;;8.82;;
13244;SDS011;6689;53.400;12.486;2023-03-11T01:31:38;14.15;;;9.00;;
13244;SDS011;6689;53.400;12.486;2023-03-11T01:34:05;12.85;;;7.35;;
13244;SDS011;6689;53.400;12.486;2023-03-11T01:36:33;11.73;;;8.18;;
13244;SDS011;6689;53.400;12.486;2023-03-11T01:39:00;10.82;;;8.43;;
13244;SDS011;6689;53.400;12.486;2023-03-11T01:41:29;9.73;;;7.05;;
13244;SDS011;6689;53.400;12.486;2023-03-11T01:43:56;13.50;;;8.02;;
13244;SDS011;6689;53.400;12.486;2023-03-11T01:46:23;12.93;;;7.57;;
13244;SDS011;6689;53.400;12.486;2023-03-11T01:48:52;11.38;;;7.38;;
13244;SDS011;6689;53.400;12.486;2023-03-11T01:51:23;11.23;;;8.05;;
13244;SDS011;6689;53.400;12.486;2023-03-11T01:53:54;12.32;;;7.55;;
13244;SDS011;6689;53.400;12.486;2023-03-11T01:56:22;9.43;;;7.40;;
13244;SDS011;6689;53.400;12.486;2023-03-11T01:58:51;10.35;;;7.65;;
13244;SDS011;6689;53.400;12.486;2023-03-11T02:01:20;9.75;;;7.30;;
13244;SDS011;6689;53.400;12.486;2023-03-11T02:03:49;9.82;;;6.68;;
13244;SDS011;6689;53.400;12.486;2023-03-11T02:06:17;9.07;;;6.32;;
13244;SDS011;6689;53.400;12.486;2023-03-11T02:08:47;9.57;;;7.28;;
13244;SDS011;6689;53.400;12.486;2023-03-11T02:11:15;11.55;;;6.18;;
13244;SDS011;6689;53.400;12.486;2023-03-11T02:13:45;7.75;;;5.18;;
13244;SDS011;6689;53.400;12.486;2023-03-11T02:16:15;7.85;;;5.22;;
13244;SDS011;6689;53.400;12.486;2023-03-11T02:18:43;7.80;;;5.18;;
13244;SDS011;6689;53.400;12.486;2023-03-11T02:21:14;7.10;;;4.80;;
13244;SDS011;6689;53.400;12.486;2023-03-11T02:23:49;6.15;;;4.20;;
13244;SDS011;6689;53.400;12.486;2023-03-11T02:26:24;5.80;;;3.75;;
13244;SDS011;6689;53.400;12.486;2023-03-11T02:28:57;5.57;;;3.92;;
13244;SDS011;6689;53.400;12.486;2023-03-11T02:31:26;4.78;;;3.65;;
13244;SDS011;6689;53.400;12.486;2023-03-11T02:33:58;4.85;;;3.28;;
13244;SDS011;6689;53.400;12.486;2023-03-11T02:36:32;4.93;;;2.88;;
13244;SDS011;6689;53.400;12.486;2023-03-11T02:39:01;6.55;;;4.30;;
13244;SDS011;6689;53.400;12.486;2023-03-11T02:41:30;5.05;;;3.05;;
13244;SDS011;6689;53.400;12.486;2023-03-11T02:44:00;5.25;;;3.60;;
13244;SDS011;6689;53.400;12.486;2023-03-11T02:46:28;6.18;;;3.92;;
13244;SDS011;6689;53.400;12.486;2023-03-11T02:48:55;6.72;;;3.63;;
13244;SDS011;6689;53.400;12.486;2023-03-11T02:51:25;9.57;;;4.30;;
13244;SDS011;6689;53.400;12.486;2023-03-11T02:53:54;6.13;;;4.35;;
13244;SDS011;6689;53.400;12.486;2023-03-11T02:56:25;8.23;;;4.82;;
13244;SDS011;6689;53.400;12.486;2023-03-11T02:58:52;6.65;;;4.63;;
13244;SDS011;6689;53.400;12.486;2023-03-11T03:01:21;7.30;;;4.57;;
13244;SDS011;6689;53.400;12.486;2023-03-11T03:03:49;11.60;;;4.45;;
13244;SDS011;6689;53.400;12.486;2023-03-11T03:06:17;7.75;;;5.18;;
13244;SDS011;6689;53.400;12.486;2023-03-11T03:08:44;9.82;;;5.43;;
13244;SDS011;6689;53.400;12.486;2023-03-11T03:11:11;6.20;;;4.38;;
13244;SDS011;6689;53.400;12.486;2023-03-11T03:13:38;8.82;;;4.65;;
13244;SDS011;6689;53.400;12.486;2023-03-11T03:16:06;6.53;;;4.30;;
13244;SDS011;6689;53.400;12.486;2023-03-11T03:18:36;6.93;;;4.85;;
13244;SDS011;6689;53.400;12.486;2023-03-11T03:21:03;6.30;;;4.38;;
13244;SDS011;6689;53.400;12.486;2023-03-11T03:23:31;5.53;;;4.25;;
13244;SDS011;6689;53.400;12.486;2023-03-11T03:26:01;8.85;;;5.68;;
13244;SDS011;6689;53.400;12.486;2023-03-11T03:28:29;8.60;;;4.70;;
13244;SDS011;6689;53.400;12.486;2023-03-11T03:31:02;7.80;;;5.45;;
13244;SDS011;6689;53.400;12.486;2023-03-11T03:33:30;12.77;;;6.47;;
13244;SDS011;6689;53.400;12.486;2023-03-11T03:35:58;7.45;;;5.90;;
13244;SDS011;6689;53.400;12.486;2023-03-11T03:38:26;9.32;;;6.30;;
13244;SDS011;6689;53.400;12.486;2023-03-11T03:40:53;9.30;;;5.85;;
13244;SDS011;6689;53.400;12.486;2023-03-11T03:43:20;10.73;;;6.28;;
13244;SDS011;6689;53.400;12.486;2023-03-11T03:45:54;9.68;;;6.35;;
13244;SDS011;6689;53.400;12.486;2023-03-11T03:48:22;8.18;;;6.35;;
13244;SDS011;6689;53.400;12.486;2023-03-11T03:50:50;8.63;;;6.15;;
13244;SDS011;6689;53.400;12.486;2023-03-11T03:53:19;7.25;;;5.50;;
13244;SDS011;6689;53.400;12.486;2023-03-11T03:55:47;10.80;;;6.57;;
13244;SDS011;6689;53.400;12.486;2023-03-11T03:58:15;7.47;;;5.43;;
13244;SDS011;6689;53.400;12.486;2023-03-11T04:00:42;10.43;;;5.90;;
13244;SDS011;6689;53.400;12.486;2023-03-11T04:03:09;9.38;;;6.15;;
13244;SDS011;6689;53.400;12.486;2023-03-11T04:05:37;8.63;;;5.57;;
13244;SDS011;6689;53.400;12.486;2023-03-11T04:08:04;8.77;;;5.80;;
13244;SDS011;6689;53.400;12.486;2023-03-11T04:10:33;11.43;;;6.07;;
13244;SDS011;6689;53.400;12.486;2023-03-11T04:13:00;10.45;;;6.07;;
13244;SDS011;6689;53.400;12.486;2023-03-11T04:15:27;8.52;;;5.72;;
13244;SDS011;6689;53.400;12.486;2023-03-11T04:17:54;9.73;;;5.80;;
13244;SDS011;6689;53.400;12.486;2023-03-11T04:20:22;8.82;;;5.32;;
13244;SDS011;6689;53.400;12.486;2023-03-11T04:22:49;11.02;;;6.10;;
13244;SDS011;6689;53.400;12.486;2023-03-11T04:25:16;8.35;;;5.82;;
13244;SDS011;6689;53.400;12.486;2023-03-11T04:27:48;7.72;;;5.50;;
13244;SDS011;6689;53.400;12.486;2023-03-11T04:30:16;9.65;;;6.30;;
13244;SDS011;6689;53.400;12.486;2023-03-11T04:32:43;8.45;;;5.30;;
13244;SDS011;6689;53.400;12.486;2023-03-11T04:35:11;8.43;;;5.72;;
13244;SDS011;6689;53.400;12.486;2023-03-11T04:37:39;9.98;;;5.22;;
13244;SDS011;6689;53.400;12.486;2023-03-11T04:40:07;8.15;;;5.45;;
13244;SDS011;6689;53.400;12.486;2023-03-11T04:42:36;9.35;;;5.25;;
13244;SDS011;6689;53.400;12.486;2023-03-11T04:45:05;9.73;;;5.72;;
13244;SDS011;6689;53.400;12.486;2023-03-11T04:47:35;11.75;;;5.32;;
13244;SDS011;6689;53.400;12.486;2023-03-11T04:50:02;11.48;;;5.53;;
13244;SDS011;6689;53.400;12.486;2023-03-11T04:52:30;8.98;;;5.53;;
13244;SDS011;6689;53.400;12.486;2023-03-11T04:54:57;7.88;;;4.88;;
13244;SDS011;6689;53.400;12.486;2023-03-11T04:57:24;10.40;;;5.32;;
13244;SDS011;6689;53.400;12.486;2023-03-11T04:59:51;7.63;;;4.88;;
13244;SDS011;6689;53.400;12.486;2023-03-11T05:02:20;11.45;;;6.25;;
13244;SDS011;6689;53.400;12.486;2023-03-11T05:04:47;9.40;;;4.57;;
13244;SDS011;6689;53.400;12.486;2023-03-11T05:07:15;7.85;;;5.20;;
13244;SDS011;6689;53.400;12.486;2023-03-11T05:09:42;8.10;;;5.72;;
13244;SDS011;6689;53.400;12.486;2023-03-11T05:12:09;7.10;;;5.63;;
13244;SDS011;6689;53.400;12.486;2023-03-11T05:14:37;7.97;;;5.72;;
13244;SDS011;6689;53.400;12.486;2023-03-11T05:17:04;10.93;;;6.22;;
13244;SDS011;6689;53.400;12.486;2023-03-11T05:19:33;7.90;;;5.68;;
13244;SDS011;6689;53.400;12.486;2023-03-11T05:22:01;7.60;;;5.18;;
13244;SDS011;6689;53.400;12.486;2023-03-11T05:24:29;8.75;;;5.38;;
13244;SDS011;6689;53.400;12.486;2023-03-11T05:26:59;7.60;;;5.18;;
13244;SDS011;6689;53.400;12.486;2023-03-11T05:29:27;8.10;;;5.85;;
13244;SDS011;6689;53.400;12.486;2023-03-11T05:31:55;9.35;;;5.15;;
13244;SDS011;6689;53.400;12.486;2023-03-11T05:34:22;8.40;;;5.20;;
13244;SDS011;6689;53.400;12.486;2023-03-11T05:36:51;9.73;;;5.95;;
13244;SDS011;6689;53.400;12.486;2023-03-11T05:39:18;8.63;;;4.90;;
13244;SDS011;6689;53.400;12.486;2023-03-11T05:41:45;8.93;;;5.07;;
13244;SDS011;6689;53.400;12.486;2023-03-11T05:44:13;7.30;;;4.72;;
13244;SDS011;6689;53.400;12.486;2023-03-11T05:46:40;11.95;;;5.45;;
13244;SDS011;6689;53.400;12.486;2023-03-11T05:49:08;7.45;;;4.70;;
13244;SDS011;6689;53.400;12.486;2023-03-11T05:51:35;8.27;;;3.58;;
13244;SDS011;6689;53.400;12.486;2023-03-11T05:54:04;5.20;;;3.70;;
13244;SDS011;6689;53.400;12.486;2023-03-11T05:56:35;6.97;;;4.00;;
13244;SDS011;6689;53.400;12.486;2023-03-11T05:59:03;7.82;;;4.63;;
13244;SDS011;6689;53.400;12.486;2023-03-11T06:01:30;6.78;;;4.22;;
13244;SDS011;6689;53.400;12.486;2023-03-11T06:03:57;6.70;;;4.55;;
13244;SDS011;6689;53.400;12.486;2023-03-11T06:06:26;6.55;;;4.32;;
13244;SDS011;6689;53.400;12.486;2023-03-11T06:08:53;6.97;;;4.45;;
13244;SDS011;6689;53.400;12.486;2023-03-11T06:11:22;14.48;;;9.05;;
13244;SDS011;6689;53.400;12.486;2023-03-11T06:13:51;15.35;;;9.88;;
13244;SDS011;6689;53.400;12.486;2023-03-11T06:16:19;34.58;;;15.18;;
13244;SDS011;6689;53.400;12.486;2023-03-11T06:18:47;19.77;;;11.00;;
13244;SDS011;6689;53.400;12.486;2023-03-11T06:21:15;9.35;;;6.28;;
13244;SDS011;6689;53.400;12.486;2023-03-11T06:23:43;9.05;;;5.88;;
13244;SDS011;6689;53.400;12.486;2023-03-11T06:26:11;8.60;;;4.38;;
13244;SDS011;6689;53.400;12.486;2023-03-11T06:28:42;7.85;;;4.10;;
13244;SDS011;6689;53.400;12.486;2023-03-11T06:31:09;6.70;;;4.18;;
13244;SDS011;6689;53.400;12.486;2023-03-11T06:33:39;6.38;;;4.43;;
13244;SDS011;6689;53.400;12.486;2023-03-11T06:36:06;8.10;;;4.32;;
13244;SDS011;6689;53.400;12.486;2023-03-11T06:38:37;7.95;;;4.72;;
13244;SDS011;6689;53.400;12.486;2023-03-11T06:41:05;8.95;;;4.97;;
13244;SDS011;6689;53.400;12.486;2023-03-11T06:43:33;7.38;;;4.55;;
13244;SDS011;6689;53.400;12.486;2023-03-11T06:46:06;6.47;;;4.35;;
13244;SDS011;6689;53.400;12.486;2023-03-11T06:48:34;6.50;;;4.43;;
13244;SDS011;6689;53.400;12.486;2023-03-11T06:51:01;9.50;;;4.85;;
13244;SDS011;6689;53.400;12.486;2023-03-11T06:53:30;7.03;;;4.35;;
13244;SDS011;6689;53.400;12.486;2023-03-11T06:55:58;5.95;;;4.28;;
13244;SDS011;6689;53.400;12.486;2023-03-11T06:58:26;6.95;;;4.22;;
13244;SDS011;6689;53.400;12.486;2023-03-11T07:00:54;7.97;;;4.95;;
13244;SDS011;6689;53.400;12.486;2023-03-11T07:03:28;7.05;;;5.10;;
13244;SDS011;6689;53.400;12.486;2023-03-11T07:05:55;8.35;;;5.38;;
13244;SDS011;6689;53.400;12.486;2023-03-11T07:08:23;6.78;;;4.30;;
13244;SDS011;6689;53.400;12.486;2023-03-11T07:11:00;5.80;;;4.20;;
13244;SDS011;6689;53.400;12.486;2023-03-11T07:13:29;9.35;;;4.82;;
13244;SDS011;6689;53.400;12.486;2023-03-11T07:16:00;5.95;;;4.72;;
13244;SDS011;6689;53.400;12.486;2023-03-11T07:18:30;6.00;;;3.88;;
13244;SDS011;6689;53.400;12.486;2023-03-11T07:20:58;5.82;;;3.95;;
13244;SDS011;6689;53.400;12.486;2023-03-11T07:23:27;5.13;;;3.72;;
13244;SDS011;6689;53.400;12.486;2023-03-11T07:25:55;4.78;;;3.55;;
13244;SDS011;6689;53.400;12.486;2023-03-11T07:28:23;4.60;;;3.38;;
13244;SDS011;6689;53.400;12.486;2023-03-11T07:30:52;5.45;;;3.78;;
13244;SDS011;6689;53.400;12.486;2023-03-11T07:33:20;4.43;;;3.80;;
13244;SDS011;6689;53.400;12.486;2023-03-11T07:35:50;5.85;;;3.55;;
13244;SDS011;6689;53.400;12.486;2023-03-11T07:38:18;4.85;;;3.22;;
13244;SDS011;6689;53.400;12.486;2023-03-11T07:40:56;5.50;;;3.30;;
13244;SDS011;6689;53.400;12.486;2023-03-11T07:43:24;9.77;;;4.15;;
13244;SDS011;6689;53.400;12.486;2023-03-11T07:45:52;4.28;;;3.13;;
13244;SDS011;6689;53.400;12.486;2023-03-11T07:48:27;3.72;;;2.75;;
13244;SDS011;6689;53.400;12.486;2023-03-11T07:51:00;4.22;;;2.92;;
13244;SDS011;6689;53.400;12.486;2023-03-11T07:53:28;6.35;;;3.83;;
13244;SDS011;6689;53.400;12.486;2023-03-11T07:55:56;5.10;;;2.90;;
13244;SDS011;6689;53.400;12.486;2023-03-11T07:58:24;4.47;;;2.90;;
13244;SDS011;6689;53.400;12.486;2023-03-11T08:00:52;2.92;;;2.42;;
13244;SDS011;6689;53.400;12.486;2023-03-11T08:03:21;5.55;;;2.53;;
13244;SDS011;6689;53.400;12.486;2023-03-11T08:05:49;4.30;;;2.80;;
13244;SDS011;6689;53.400;12.486;2023-03-11T08:08:19;4.47;;;2.40;;
13244;SDS011;6689;53.400;12.486;2023-03-11T08:10:46;3.33;;;2.22;;
13244;SDS011;6689;53.400;12.486;2023-03-11T08:13:15;3.10;;;2.10;;
13244;SDS011;6689;53.400;12.486;2023-03-11T08:15:46;3.63;;;2.35;;
13244;SDS011;6689;53.400;12.486;2023-03-11T08:18:13;3.45;;;2.58;;
13244;SDS011;6689;53.400;12.486;2023-03-11T08:20:40;5.22;;;2.33;;
13244;SDS011;6689;53.400;12.486;2023-03-11T08:23:09;4.30;;;2.05;;
13244;SDS011;6689;53.400;12.486;2023-03-11T08:25:40;3.45;;;2.22;;
13244;SDS011;6689;53.400;12.486;2023-03-11T08:28:07;5.25;;;2.08;;
13244;SDS011;6689;53.400;12.486;2023-03-11T08:30:35;2.92;;;2.00;;
13244;SDS011;6689;53.400;12.486;2023-03-11T08:33:03;3.20;;;2.33;;
13244;SDS011;6689;53.400;12.486;2023-03-11T08:35:31;2.40;;;1.75;;
13244;SDS011;6689;53.400;12.486;2023-03-11T08:37:58;3.58;;;2.33;;
13244;SDS011;6689;53.400;12.486;2023-03-11T08:40:25;2.28;;;1.70;;
13244;SDS011;6689;53.400;12.486;2023-03-11T08:42:55;4.00;;;2.03;;
13244;SDS011;6689;53.400;12.486;2023-03-11T08:45:23;3.20;;;2.53;;
13244;SDS011;6689;53.400;12.486;2023-03-11T08:47:50;3.17;;;2.05;;
13244;SDS011;6689;53.400;12.486;2023-03-11T08:50:18;3.17;;;2.40;;
13244;SDS011;6689;53.400;12.486;2023-03-11T08:52:46;3.67;;;2.70;;
13244;SDS011;6689;53.400;12.486;2023-03-11T08:55:14;3.58;;;2.35;;
13244;SDS011;6689;53.400;12.486;2023-03-11T09:00:18;5.20;;;2.75;;
13244;SDS011;6689;53.400;12.486;2023-03-11T09:02:46;4.55;;;2.95;;
13244;SDS011;6689;53.400;12.486;2023-03-11T09:05:13;4.18;;;3.20;;
13244;SDS011;6689;53.400;12.486;2023-03-11T09:07:40;4.07;;;3.55;;
13244;SDS011;6689;53.400;12.486;2023-03-11T09:10:08;4.50;;;3.75;;
13244;SDS011;6689;53.400;12.486;2023-03-11T09:12:36;40.25;;;5.22;;
13244;SDS011;6689;53.400;12.486;2023-03-11T09:15:04;5.75;;;3.97;;
13244;SDS011;6689;53.400;12.486;2023-03-11T09:17:33;5.15;;;4.38;;
13244;SDS011;6689;53.400;12.486;2023-03-11T09:20:01;7.15;;;4.85;;
13244;SDS011;6689;53.400;12.486;2023-03-11T09:22:29;7.55;;;4.53;;
13244;SDS011;6689;53.400;12.486;2023-03-11T09:24:56;6.22;;;4.70;;
13244;SDS011;6689;53.400;12.486;2023-03-11T09:27:24;6.05;;;4.25;;
13244;SDS011;6689;53.400;12.486;2023-03-11T09:29:51;7.82;;;5.22;;
13244;SDS011;6689;53.400;12.486;2023-03-11T09:32:18;6.90;;;4.95;;
13244;SDS011;6689;53.400;12.486;2023-03-11T09:34:47;7.32;;;4.78;;
13244;SDS011;6689;53.400;12.486;2023-03-11T09:37:15;6.63;;;5.07;;
13244;SDS011;6689;53.400;12.486;2023-03-11T09:39:42;5.82;;;4.20;;
13244;SDS011;6689;53.400;12.486;2023-03-11T09:42:11;6.32;;;5.22;;
13244;SDS011;6689;53.400;12.486;2023-03-11T09:44:48;8.95;;;5.38;;
13244;SDS011;6689;53.400;12.486;2023-03-11T09:47:26;5.90;;;5.18;;
13244;SDS011;6689;53.400;12.486;2023-03-11T09:50:09;7.22;;;5.25;;
13244;SDS011;6689;53.400;12.486;2023-03-11T09:52:44;7.35;;;5.35;;
13244;SDS011;6689;53.400;12.486;2023-03-11T09:55:29;9.65;;;5.78;;
13244;SDS011;6689;53.400;12.486;2023-03-11T09:58:02;7.05;;;5.22;;
13244;SDS011;6689;53.400;12.486;2023-03-11T10:00:35;8.88;;;5.57;;
13244;SDS011;6689;53.400;12.486;2023-03-11T10:03:04;6.53;;;5.05;;
13244;SDS011;6689;53.400;12.486;2023-03-11T10:05:45;7.82;;;5.65;;
13244;SDS011;6689;53.400;12.486;2023-03-11T10:08:15;7.20;;;5.13;;
13244;SDS011;6689;53.400;12.486;2023-03-11T10:10:49;6.72;;;5.30;;
13244;SDS011;6689;53.400;12.486;2023-03-11T10:13:24;6.55;;;5.80;;
13244;SDS011;6689;53.400;12.486;2023-03-11T10:15:57;8.63;;;6.15;;
13244;SDS011;6689;53.400;12.486;2023-03-11T10:18:37;6.95;;;6.22;;
13244;SDS011;6689;53.400;12.486;2023-03-11T10:21:19;8.48;;;6.97;;
13244;SDS011;6689;53.400;12.486;2023-03-11T10:24:03;10.10;;;7.47;;
13244;SDS011;6689;53.400;12.486;2023-03-11T10:26:49;10.90;;;7.53;;
13244;SDS011;6689;53.400;12.486;2023-03-11T10:29:20;8.30;;;7.07;;
13244;SDS011;6689;53.400;12.486;2023-03-11T10:31:53;10.10;;;6.97;;
13244;SDS011;6689;53.400;12.486;2023-03-11T10:34:27;10.50;;;8.95;;
13244;SDS011;6689;53.400;12.486;2023-03-11T10:37:04;9.95;;;8.18;;
13244;SDS011;6689;53.400;12.486;2023-03-11T10:39:37;11.93;;;8.70;;
13244;SDS011;6689;53.400;12.486;2023-03-11T10:42:09;12.10;;;7.80;;
13244;SDS011;6689;53.400;12.486;2023-03-11T10:44:39;9.55;;;8.15;;
13244;SDS011;6689;53.400;12.486;2023-03-11T10:47:12;9.45;;;7.55;;
13244;SDS011;6689;53.400;12.486;2023-03-11T10:49:42;9.43;;;7.73;;
13244;SDS011;6689;53.400;12.486;2023-03-11T10:52:11;8.60;;;7.70;;
13244;SDS011;6689;53.400;12.486;2023-03-11T10:54:40;12.85;;;8.32;;
13244;SDS011;6689;53.400;12.486;2023-03-11T10:57:20;10.45;;;8.13;;
13244;SDS011;6689;53.400;12.486;2023-03-11T10:59:50;10.23;;;8.52;;
13244;SDS011;6689;53.400;12.486;2023-03-11T11:02:23;9.55;;;7.75;;
13244;SDS011;6689;53.400;12.486;2023-03-11T11:05:06;10.25;;;7.97;;
13244;SDS011;6689;53.400;12.486;2023-03-11T11:08:02;10.20;;;8.25;;
13244;SDS011;6689;53.400;12.486;2023-03-11T11:10:31;10.15;;;7.88;;
13244;SDS011;6689;53.400;12.486;2023-03-11T11:13:01;9.35;;;7.82;;
13244;SDS011;6689;53.400;12.486;2023-03-11T11:15:42;10.50;;;7.50;;
13244;SDS011;6689;53.400;12.486;2023-03-11T11:18:18;8.13;;;7.22;;
13244;SDS011;6689;53.400;12.486;2023-03-11T11:23:41;8.05;;;7.10;;
13244;SDS011;6689;53.400;12.486;2023-03-11T11:26:16;9.23;;;6.90;;
13244;SDS011;6689;53.400;12.486;2023-03-11T11:28:45;7.60;;;6.38;;
13244;SDS011;6689;53.400;12.486;2023-03-11T11:31:30;9.93;;;7.75;;
13244;SDS011;6689;53.400;12.486;2023-03-11T11:33:57;8.77;;;6.68;;
13244;SDS011;6689;53.400;12.486;2023-03-11T11:36:26;7.70;;;6.18;;
13244;SDS011;6689;53.400;12.486;2023-03-11T11:38:58;10.07;;;7.03;;
13244;SDS011;6689;53.400;12.486;2023-03-11T11:41:30;9.55;;;7.75;;
13244;SDS011;6689;53.400;12.486;2023-03-11T11:44:02;8.52;;;6.10;;
13244;SDS011;6689;53.400;12.486;2023-03-11T11:46:33;9.88;;;6.20;;
13244;SDS011;6689;53.400;12.486;2023-03-11T11:49:08;8.27;;;6.40;;
13244;SDS011;6689;53.400;12.486;2023-03-11T11:51:43;11.02;;;5.80;;
13244;SDS011;6689;53.400;12.486;2023-03-11T11:54:19;8.00;;;6.32;;
13244;SDS011;6689;53.400;12.486;2023-03-11T11:56:52;9.10;;;6.55;;
13244;SDS011;6689;53.400;12.486;2023-03-11T11:59:21;8.05;;;5.95;;
13244;SDS011;6689;53.400;12.486;2023-03-11T12:01:54;7.22;;;6.43;;
13244;SDS011;6689;53.400;12.486;2023-03-11T12:04:34;9.55;;;6.75;;
13244;SDS011;6689;53.400;12.486;2023-03-11T12:07:18;9.30;;;7.10;;
13244;SDS011;6689;53.400;12.486;2023-03-11T12:10:20;6.28;;;5.45;;
13244;SDS011;6689;53.400;12.486;2023-03-11T12:13:01;9.18;;;6.53;;
13244;SDS011;6689;53.400;12.486;2023-03-11T12:15:50;6.70;;;5.75;;
13244;SDS011;6689;53.400;12.486;2023-03-11T12:18:23;6.63;;;5.65;;
13244;SDS011;6689;53.400;12.486;2023-03-11T12:20:59;7.30;;;5.63;;
13244;SDS011;6689;53.400;12.486;2023-03-11T12:23:41;7.35;;;5.22;;
13244;SDS011;6689;53.400;12.486;2023-03-11T12:26:22;6.80;;;5.15;;
13244;SDS011;6689;53.400;12.486;2023-03-11T12:28:52;7.70;;;6.10;;
13244;SDS011;6689;53.400;12.486;2023-03-11T12:31:25;7.47;;;5.40;;
13244;SDS011;6689;53.400;12.486;2023-03-11T12:33:56;7.03;;;4.90;;
13244;SDS011;6689;53.400;12.486;2023-03-11T12:36:28;8.68;;;5.90;;
13244;SDS011;6689;53.400;12.486;2023-03-11T12:38:56;6.05;;;5.45;;
13244;SDS011;6689;53.400;12.486;2023-03-11T12:41:27;7.35;;;6.22;;
13244;SDS011;6689;53.400;12.486;2023-03-11T12:46:58;6.38;;;4.93;;
13244;SDS011;6689;53.400;12.486;2023-03-11T12:49:43;6.43;;;5.20;;
13244;SDS011;6689;53.400;12.486;2023-03-11T12:52:16;6.72;;;5.53;;
13244;SDS011;6689;53.400;12.486;2023-03-11T12:54:46;6.78;;;5.13;;
13244;SDS011;6689;53.400;12.486;2023-03-11T13:06:21;7.93;;;4.85;;
13244;SDS011;6689;53.400;12.486;2023-03-11T13:09:03;6.63;;;4.90;;
13244;SDS011;6689;53.400;12.486;2023-03-11T13:11:41;7.17;;;4.80;;
13244;SDS011;6689;53.400;12.486;2023-03-11T13:16:55;5.95;;;4.88;;
13244;SDS011;6689;53.400;12.486;2023-03-11T13:19:49;6.25;;;4.60;;
13244;SDS011;6689;53.400;12.486;2023-03-11T13:25:31;5.38;;;4.68;;
13244;SDS011;6689;53.400;12.486;2023-03-11T13:28:22;5.65;;;5.00;;
13244;SDS011;6689;53.400;12.486;2023-03-11T13:31:10;6.78;;;3.80;;
13244;SDS011;6689;53.400;12.486;2023-03-11T13:33:47;6.57;;;4.63;;
13244;SDS011;6689;53.400;12.486;2023-03-11T13:36:20;6.97;;;4.05;;
13244;SDS011;6689;53.400;12.486;2023-03-11T13:42:13;4.93;;;3.97;;
13244;SDS011;6689;53.400;12.486;2023-03-11T13:44:45;7.25;;;4.47;;
13244;SDS011;6689;53.400;12.486;2023-03-11T13:47:15;8.23;;;5.22;;
13244;SDS011;6689;53.400;12.486;2023-03-11T13:49:47;8.77;;;5.50;;
13244;SDS011;6689;53.400;12.486;2023-03-11T13:52:21;5.78;;;4.18;;
13244;SDS011;6689;53.400;12.486;2023-03-11T13:54:52;7.05;;;5.13;;
13244;SDS011;6689;53.400;12.486;2023-03-11T13:57:26;6.40;;;4.18;;
13244;SDS011;6689;53.400;12.486;2023-03-11T13:59:55;5.15;;;4.18;;
13244;SDS011;6689;53.400;12.486;2023-03-11T14:02:31;7.05;;;4.22;;
13244;SDS011;6689;53.400;12.486;2023-03-11T14:05:02;5.88;;;4.05;;
13244;SDS011;6689;53.400;12.486;2023-03-11T14:07:31;5.80;;;4.20;;
13244;SDS011;6689;53.400;12.486;2023-03-11T14:10:13;7.15;;;4.07;;
13244;SDS011;6689;53.400;12.486;2023-03-11T14:12:51;7.35;;;4.00;;
13244;SDS011;6689;53.400;12.486;2023-03-11T14:15:29;5.38;;;3.95;;
13244;SDS011;6689;53.400;12.486;2023-03-11T14:18:25;5.70;;;3.90;;
13244;SDS011;6689;53.400;12.486;2023-03-11T14:20:54;6.05;;;4.00;;
13244;SDS011;6689;53.400;12.486;2023-03-11T14:23:23;6.57;;;3.75;;
13244;SDS011;6689;53.400;12.486;2023-03-11T14:26:01;5.93;;;3.90;;
13244;SDS011;6689;53.400;12.486;2023-03-11T14:28:33;5.65;;;3.72;;
13244;SDS011;6689;53.400;12.486;2023-03-11T14:31:04;5.95;;;3.63;;
13244;SDS011;6689;53.400;12.486;2023-03-11T14:33:33;5.78;;;3.28;;
13244;SDS011;6689;53.400;12.486;2023-03-11T14:36:01;5.45;;;4.03;;
13244;SDS011;6689;53.400;12.486;2023-03-11T14:38:30;4.30;;;3.40;;
13244;SDS011;6689;53.400;12.486;2023-03-11T14:40:59;4.22;;;3.33;;
13244;SDS011;6689;53.400;12.486;2023-03-11T14:43:28;11.32;;;5.10;;
13244;SDS011;6689;53.400;12.486;2023-03-11T14:45:59;3.88;;;3.17;;
13244;SDS011;6689;53.400;12.486;2023-03-11T14:48:30;5.43;;;3.78;;
13244;SDS011;6689;53.400;12.486;2023-03-11T14:51:04;6.40;;;3.92;;
13244;SDS011;6689;53.400;12.486;2023-03-11T14:53:39;5.97;;;4.17;;
13244;SDS011;6689;53.400;12.486;2023-03-11T14:56:11;9.27;;;4.25;;
13244;SDS011;6689;53.400;12.486;2023-03-11T14:58:42;4.65;;;3.28;;
13244;SDS011;6689;53.400;12.486;2023-03-11T15:01:13;4.32;;;3.28;;
13244;SDS011;6689;53.400;12.486;2023-03-11T15:03:47;6.88;;;3.45;;
13244;SDS011;6689;53.400;12.486;2023-03-11T15:06:17;5.70;;;3.50;;
13244;SDS011;6689;53.400;12.486;2023-03-11T15:08:48;5.18;;;3.22;;
13244;SDS011;6689;53.400;12.486;2023-03-11T15:11:21;7.25;;;4.15;;
13244;SDS011;6689;53.400;12.486;2023-03-11T15:13:50;4.78;;;3.03;;
13244;SDS011;6689;53.400;12.486;2023-03-11T15:16:27;5.05;;;3.22;;
13244;SDS011;6689;53.400;12.486;2023-03-11T15:18:59;5.28;;;3.30;;
13244;SDS011;6689;53.400;12.486;2023-03-11T15:21:27;5.25;;;3.47;;
13244;SDS011;6689;53.400;12.486;2023-03-11T15:23:58;6.15;;;3.30;;
13244;SDS011;6689;53.400;12.486;2023-03-11T15:26:29;4.55;;;3.35;;
13244;SDS011;6689;53.400;12.486;2023-03-11T15:28:58;5.45;;;3.30;;
13244;SDS011;6689;53.400;12.486;2023-03-11T15:31:32;8.35;;;3.63;;